createdAt,value
2018-12-16T00:01:39.408Z,15.27
2018-12-16T00:04:08.485Z,15.60
2018-12-16T00:06:37.269Z,15.03
2018-12-16T00:09:07.348Z,15.13
2018-12-16T00:11:35.646Z,14.83
2018-12-16T00:14:04.103Z,14.00
2018-12-16T00:16:32.714Z,14.13
2018-12-16T00:19:01.355Z,15.63
2018-12-16T00:21:29.960Z,16.57
2018-12-16T00:23:58.690Z,15.67
2018-12-16T00:26:37.358Z,16.87
2018-12-16T00:29:06.349Z,15.97
2018-12-16T00:31:35.030Z,16.23
2018-12-16T00:34:03.698Z,15.70
2018-12-16T00:36:32.381Z,16.67
2018-12-16T00:39:00.989Z,15.43
2018-12-16T00:41:29.633Z,16.97
2018-12-16T00:43:58.410Z,16.60
2018-12-16T00:46:27.042Z,16.50
2018-12-16T00:48:55.715Z,17.20
2018-12-16T00:51:24.404Z,15.80
2018-12-16T00:53:52.732Z,16.90
2018-12-16T00:56:21.357Z,17.40
2018-12-16T00:58:49.996Z,15.37
2018-12-16T01:01:18.627Z,16.63
2018-12-16T01:03:47.350Z,15.30
2018-12-16T01:06:15.989Z,15.47
2018-12-16T01:08:44.756Z,15.53
2018-12-16T01:11:13.387Z,14.73
2018-12-16T01:13:41.756Z,16.20
2018-12-16T01:16:10.378Z,15.73
2018-12-16T01:18:39.022Z,16.20
2018-12-16T01:21:07.796Z,16.73
2018-12-16T01:23:37.116Z,15.63
2018-12-16T01:26:05.737Z,15.80
2018-12-16T01:28:34.375Z,16.60
2018-12-16T01:31:02.986Z,16.80
2018-12-16T01:33:31.526Z,16.77
2018-12-16T01:36:01.197Z,16.70
2018-12-16T01:38:29.858Z,16.07
2018-12-16T01:40:58.754Z,15.23
2018-12-16T01:43:27.451Z,14.83
2018-12-16T01:45:55.770Z,14.77
2018-12-16T01:48:24.426Z,14.73
2018-12-16T01:50:53.133Z,15.87
2018-12-16T01:53:21.792Z,14.63
2018-12-16T01:55:50.643Z,16.03
2018-12-16T01:58:19.248Z,15.17
2018-12-16T02:00:47.965Z,14.30
2018-12-16T02:03:16.698Z,14.47
2018-12-16T02:05:45.395Z,14.57
2018-12-16T02:08:14.186Z,15.27
2018-12-16T02:10:42.937Z,15.40
2018-12-16T02:13:11.600Z,16.53
2018-12-16T02:15:40.295Z,14.87
2018-12-16T02:18:09.007Z,15.53
2018-12-16T02:20:37.814Z,15.40
2018-12-16T02:23:06.487Z,15.33
2018-12-16T02:25:35.148Z,15.07
2018-12-16T02:28:03.920Z,15.37
2018-12-16T02:30:32.990Z,16.77
2018-12-16T02:33:02.119Z,15.93
2018-12-16T02:35:30.856Z,15.30
2018-12-16T02:37:59.572Z,14.87
2018-12-16T02:40:28.278Z,14.27
2018-12-16T02:42:56.955Z,15.80
2018-12-16T02:45:25.646Z,15.97
2018-12-16T02:47:53.983Z,15.70
2018-12-16T02:50:22.671Z,15.53
2018-12-16T02:52:51.012Z,16.00
2018-12-16T02:55:19.743Z,15.90
2018-12-16T02:57:48.419Z,15.53
2018-12-16T03:00:16.781Z,16.60
2018-12-16T03:02:45.468Z,14.63
2018-12-16T03:05:14.311Z,15.37
2018-12-16T03:07:43.038Z,15.10
2018-12-16T03:10:12.273Z,15.07
2018-12-16T03:12:40.950Z,16.27
2018-12-16T03:15:09.437Z,15.83
2018-12-16T03:17:38.114Z,16.07
2018-12-16T03:20:06.944Z,14.43
2018-12-16T03:22:35.866Z,15.50
2018-12-16T03:25:05.007Z,14.70
2018-12-16T03:27:33.695Z,14.53
2018-12-16T03:30:02.006Z,15.27
2018-12-16T03:32:30.407Z,15.47
2018-12-16T03:34:59.103Z,15.90
2018-12-16T03:37:27.810Z,14.80
2018-12-16T03:39:56.475Z,15.27
2018-12-16T03:42:25.171Z,13.97
2018-12-16T03:44:53.845Z,15.10
2018-12-16T03:47:22.232Z,14.50
2018-12-16T03:49:50.932Z,15.10
2018-12-16T03:52:19.596Z,15.53
2018-12-16T03:54:48.287Z,15.13
2018-12-16T03:57:16.988Z,14.07
2018-12-16T03:59:45.634Z,14.50
2018-12-16T04:02:14.299Z,14.27
2018-12-16T04:04:43.044Z,14.07
2018-12-16T04:07:12.130Z,14.70
2018-12-16T04:09:40.807Z,13.00
2018-12-16T04:12:09.117Z,14.23
2018-12-16T04:14:37.414Z,13.67
2018-12-16T04:17:06.068Z,13.93
2018-12-16T04:19:34.734Z,14.20
2018-12-16T04:22:03.888Z,14.37
2018-12-16T04:24:32.562Z,13.60
2018-12-16T04:27:01.243Z,14.20
2018-12-16T04:29:29.890Z,14.40
2018-12-16T04:31:58.580Z,13.50
2018-12-16T04:34:27.229Z,13.80
2018-12-16T04:36:55.901Z,14.63
2018-12-16T04:39:24.596Z,13.97
2018-12-16T04:41:53.288Z,14.37
2018-12-16T04:44:22.323Z,14.30
2018-12-16T04:46:51.118Z,14.37
2018-12-16T04:49:19.836Z,14.07
2018-12-16T04:51:48.516Z,13.77
2018-12-16T04:54:17.143Z,13.00
2018-12-16T04:56:45.816Z,14.53
2018-12-16T04:59:14.516Z,15.10
2018-12-16T05:01:43.241Z,14.03
2018-12-16T05:04:11.573Z,14.97
2018-12-16T05:06:40.301Z,13.80
2018-12-16T05:09:09.076Z,14.83
2018-12-16T05:11:37.723Z,13.93
2018-12-16T05:14:06.473Z,14.07
2018-12-16T05:16:35.156Z,13.67
2018-12-16T05:19:03.815Z,13.93
2018-12-16T05:21:32.483Z,13.93
2018-12-16T05:24:00.790Z,15.57
2018-12-16T05:26:29.531Z,13.83
2018-12-16T05:28:58.232Z,14.30
2018-12-16T05:31:26.899Z,13.90
2018-12-16T05:33:55.606Z,15.37
2018-12-16T05:36:24.266Z,16.03
2018-12-16T05:38:52.919Z,14.13
2018-12-16T05:41:21.608Z,14.30
2018-12-16T05:43:50.303Z,13.70
2018-12-16T05:46:18.975Z,14.90
2018-12-16T05:48:47.638Z,14.57
2018-12-16T05:51:16.320Z,13.83
2018-12-16T05:53:48.573Z,15.10
2018-12-16T05:56:15.892Z,14.07
2018-12-16T05:58:44.571Z,14.57
2018-12-16T06:01:12.914Z,14.27
2018-12-16T06:03:41.750Z,14.83
2018-12-16T06:06:10.502Z,15.30
2018-12-16T06:08:39.248Z,15.13
2018-12-16T06:11:07.911Z,15.57
2018-12-16T06:13:36.607Z,14.53
2018-12-16T06:16:05.287Z,14.43
2018-12-16T06:18:33.964Z,14.77
2018-12-16T06:21:02.651Z,14.80
2018-12-16T06:23:31.301Z,15.00
2018-12-16T06:25:59.951Z,15.10
2018-12-16T06:28:28.690Z,15.13
2018-12-16T06:30:57.531Z,14.87
2018-12-16T06:33:26.195Z,15.67
2018-12-16T06:35:54.911Z,15.43
2018-12-16T06:38:23.607Z,15.77
2018-12-16T06:40:51.912Z,15.73
2018-12-16T06:43:20.567Z,15.23
2018-12-16T06:45:49.499Z,14.67
2018-12-16T06:48:18.190Z,14.60
2018-12-16T06:50:46.854Z,15.47
2018-12-16T06:53:15.538Z,14.87
2018-12-16T06:55:44.218Z,14.70
2018-12-16T06:58:13.134Z,15.23
2018-12-16T07:00:41.787Z,14.73
2018-12-16T07:03:10.117Z,15.60
2018-12-16T07:05:38.793Z,14.27
2018-12-16T07:08:07.481Z,15.17
2018-12-16T07:10:36.387Z,15.23
2018-12-16T07:13:04.696Z,16.17
2018-12-16T07:15:33.369Z,14.87
2018-12-16T07:18:02.331Z,15.10
2018-12-16T07:20:30.655Z,15.97
2018-12-16T07:22:59.359Z,15.77
2018-12-16T07:25:28.050Z,16.00
2018-12-16T07:27:56.359Z,16.30
2018-12-16T07:30:24.731Z,16.43
2018-12-16T07:32:53.408Z,16.70
2018-12-16T07:35:22.116Z,16.90
2018-12-16T07:37:50.811Z,16.50
2018-12-16T07:40:19.491Z,16.30
2018-12-16T07:42:48.134Z,16.00
2018-12-16T07:45:17.067Z,16.03
2018-12-16T07:47:46.402Z,15.87
2018-12-16T07:50:15.417Z,15.80
2018-12-16T07:52:44.118Z,16.37
2018-12-16T07:55:12.780Z,15.80
2018-12-16T07:57:41.490Z,16.77
2018-12-16T08:00:11.714Z,16.67
2018-12-16T08:02:40.384Z,17.13
2018-12-16T08:05:09.320Z,17.20
2018-12-16T08:07:37.989Z,15.97
2018-12-16T08:10:06.775Z,17.37
2018-12-16T08:12:35.456Z,17.33
2018-12-16T08:15:04.427Z,31.90
2018-12-16T08:17:33.103Z,21.63
2018-12-16T08:20:01.418Z,18.93
2018-12-16T08:22:30.087Z,18.30
2018-12-16T08:24:58.764Z,20.23
2018-12-16T08:27:27.457Z,22.43
2018-12-16T08:29:56.158Z,19.90
2018-12-16T08:32:24.834Z,19.87
2018-12-16T08:34:53.552Z,25.93
2018-12-16T08:37:22.230Z,19.43
2018-12-16T08:39:50.882Z,21.63
2018-12-16T08:42:19.541Z,19.37
2018-12-16T08:44:48.398Z,22.03
2018-12-16T08:47:17.190Z,19.03
2018-12-16T08:49:45.855Z,23.67
2018-12-16T08:52:14.377Z,31.47
2018-12-16T08:54:43.014Z,19.80
2018-12-16T08:57:11.706Z,21.03
2018-12-16T08:59:40.366Z,19.97
2018-12-16T09:02:09.074Z,21.03
2018-12-16T09:04:37.766Z,18.90
2018-12-16T09:07:06.474Z,30.97
2018-12-16T09:09:35.566Z,24.17
2018-12-16T09:12:04.354Z,19.43
2018-12-16T09:14:33.011Z,19.43
2018-12-16T09:17:01.676Z,18.93
2018-12-16T09:19:30.299Z,25.60
2018-12-16T09:21:58.967Z,20.37
2018-12-16T09:24:27.304Z,19.70
2018-12-16T09:26:55.964Z,20.43
2018-12-16T09:29:24.627Z,22.57
2018-12-16T09:31:53.338Z,20.50
2018-12-16T09:34:22.014Z,20.63
2018-12-16T09:36:50.719Z,20.70
2018-12-16T09:39:19.382Z,20.53
2018-12-16T09:41:48.051Z,19.73
2018-12-16T09:44:16.745Z,19.90
2018-12-16T09:46:45.053Z,19.47
2018-12-16T09:49:13.679Z,21.40
2018-12-16T09:51:42.326Z,20.80
2018-12-16T09:54:10.658Z,36.17
2018-12-16T09:56:39.303Z,32.23
2018-12-16T09:59:08.005Z,25.37
2018-12-16T10:01:36.843Z,23.53
2018-12-16T10:04:05.582Z,23.03
2018-12-16T10:06:34.319Z,22.53
2018-12-16T10:09:04.462Z,27.97
2018-12-16T10:11:33.167Z,21.10
2018-12-16T10:14:01.452Z,24.67
2018-12-16T10:16:31.134Z,20.90
2018-12-16T10:18:59.485Z,21.80
2018-12-16T10:21:27.785Z,22.47
2018-12-16T10:23:56.818Z,23.57
2018-12-16T10:26:25.535Z,21.00
2018-12-16T10:28:55.668Z,23.07
2018-12-16T10:31:24.015Z,30.83
2018-12-16T10:33:52.695Z,21.83
2018-12-16T10:36:21.343Z,25.73
2018-12-16T10:38:50.011Z,23.67
2018-12-16T10:41:18.689Z,23.70
2018-12-16T10:43:47.361Z,21.30
2018-12-16T10:46:16.077Z,21.47
2018-12-16T10:48:44.734Z,22.27
2018-12-16T10:51:13.358Z,22.30
2018-12-16T10:53:42.546Z,20.67
2018-12-16T10:56:11.402Z,21.93
2018-12-16T10:58:39.720Z,25.37
2018-12-16T11:01:13.645Z,23.90
2018-12-16T11:03:42.294Z,21.67
2018-12-16T11:06:10.780Z,21.80
2018-12-16T11:08:39.938Z,22.27
2018-12-16T11:11:08.922Z,32.33
2018-12-16T11:13:37.634Z,20.67
2018-12-16T11:16:06.360Z,22.97
2018-12-16T11:18:35.076Z,24.00
2018-12-16T11:21:03.758Z,21.70
2018-12-16T11:23:32.400Z,21.33
2018-12-16T11:26:01.083Z,20.87
2018-12-16T11:28:29.444Z,19.63
2018-12-16T11:30:58.170Z,19.90
2018-12-16T11:33:26.873Z,20.67
2018-12-16T11:35:55.559Z,19.67
2018-12-16T11:38:24.375Z,19.50
2018-12-16T11:40:53.002Z,20.23
2018-12-16T11:43:21.688Z,19.13
2018-12-16T11:45:50.336Z,19.23
2018-12-16T11:48:19.006Z,20.77
2018-12-16T11:50:47.675Z,19.27
2018-12-16T11:53:16.205Z,19.97
2018-12-16T11:55:44.927Z,21.43
2018-12-16T11:58:13.754Z,19.83
2018-12-16T12:00:42.964Z,20.13
2018-12-16T12:03:11.266Z,20.37
2018-12-16T12:05:39.987Z,19.37
2018-12-16T12:08:09.249Z,19.30
2018-12-16T12:10:37.550Z,18.97
2018-12-16T12:13:06.310Z,20.00
2018-12-16T12:15:34.782Z,20.53
2018-12-16T12:18:03.241Z,20.87
2018-12-16T12:20:31.916Z,18.87
2018-12-16T12:23:00.631Z,20.70
2018-12-16T12:25:29.241Z,20.17
2018-12-16T12:27:57.558Z,23.23
2018-12-16T12:30:25.882Z,19.70
2018-12-16T12:32:54.218Z,18.13
2018-12-16T12:35:22.561Z,19.90
2018-12-16T12:37:50.837Z,23.33
2018-12-16T12:40:19.491Z,20.90
2018-12-16T12:42:48.254Z,19.40
2018-12-16T12:45:16.951Z,22.80
2018-12-16T12:47:45.241Z,19.30
2018-12-16T12:50:13.895Z,19.40
2018-12-16T12:52:42.595Z,18.40
2018-12-16T12:55:10.958Z,17.60
2018-12-16T12:57:39.293Z,18.37
2018-12-16T13:00:11.975Z,18.73
2018-12-16T13:02:40.643Z,18.23
2018-12-16T13:05:09.316Z,18.50
2018-12-16T13:07:38.012Z,19.37
2018-12-16T13:10:09.071Z,17.77
2018-12-16T13:12:37.866Z,18.00
2018-12-16T13:15:06.221Z,18.63
2018-12-16T13:17:35.078Z,18.43
2018-12-16T13:20:03.975Z,18.80
2018-12-16T13:22:32.671Z,19.77
2018-12-16T13:25:13.376Z,18.47
2018-12-16T13:27:42.099Z,18.50
2018-12-16T13:30:10.786Z,18.17
2018-12-16T13:32:39.441Z,18.27
2018-12-16T13:35:08.281Z,19.13
2018-12-16T13:37:36.966Z,20.00
2018-12-16T13:40:06.625Z,18.70
2018-12-16T13:42:35.306Z,17.37
2018-12-16T13:45:04.678Z,19.00
2018-12-16T13:47:33.353Z,18.07
2018-12-16T13:50:02.119Z,18.33
2018-12-16T13:52:30.412Z,19.13
2018-12-16T13:54:59.022Z,18.63
2018-12-16T13:57:28.903Z,18.13
2018-12-16T13:59:57.188Z,19.93
2018-12-16T14:02:26.012Z,19.07
2018-12-16T14:04:54.777Z,18.87
2018-12-16T14:07:23.649Z,17.63
2018-12-16T14:09:52.334Z,17.73
2018-12-16T14:12:20.983Z,18.07
2018-12-16T14:14:49.664Z,17.90
2018-12-16T14:17:18.353Z,18.30
2018-12-16T14:19:47.033Z,20.57
2018-12-16T14:22:15.743Z,19.17
2018-12-16T14:24:44.415Z,18.53
2018-12-16T14:27:13.150Z,17.87
2018-12-16T14:29:42.019Z,17.57
2018-12-16T14:32:10.701Z,18.50
2018-12-16T14:34:39.623Z,18.20
2018-12-16T14:37:08.362Z,19.93
2018-12-16T14:39:37.071Z,19.07
2018-12-16T14:42:05.740Z,19.23
2018-12-16T14:44:34.018Z,19.97
2018-12-16T14:47:02.831Z,18.70
2018-12-16T14:49:31.486Z,18.63
2018-12-16T14:52:00.162Z,18.40
2018-12-16T14:54:29.147Z,18.40
2018-12-16T14:56:57.829Z,18.90
2018-12-16T14:59:26.518Z,19.37
2018-12-16T15:01:55.219Z,18.60
2018-12-16T15:04:23.899Z,19.43
2018-12-16T15:06:52.612Z,17.63
2018-12-16T15:09:21.224Z,18.50
2018-12-16T15:11:49.551Z,18.30
2018-12-16T15:14:18.401Z,17.73
2018-12-16T15:16:47.122Z,18.40
2018-12-16T15:19:15.771Z,18.03
2018-12-16T15:21:44.391Z,17.87
2018-12-16T15:24:13.346Z,19.20
2018-12-16T15:26:42.018Z,17.97
2018-12-16T15:29:10.348Z,18.47
2018-12-16T15:31:39.047Z,21.10
2018-12-16T15:34:07.823Z,19.47
2018-12-16T15:36:36.521Z,18.50
2018-12-16T15:39:07.408Z,18.83
2018-12-16T15:41:36.122Z,17.87
2018-12-16T15:44:05.277Z,19.00
2018-12-16T15:46:33.946Z,18.27
2018-12-16T15:49:02.637Z,17.47
2018-12-16T15:51:31.406Z,18.17
2018-12-16T15:54:00.239Z,19.30
2018-12-16T15:56:28.930Z,17.63
2018-12-16T15:58:58.257Z,18.03
2018-12-16T16:01:26.945Z,19.07
2018-12-16T16:03:56.764Z,20.57
2018-12-16T16:06:26.098Z,22.30
2018-12-16T16:08:54.798Z,20.57
2018-12-16T16:11:23.459Z,19.67
2018-12-16T16:13:51.782Z,20.07
2018-12-16T16:16:20.916Z,21.93
2018-12-16T16:18:49.651Z,20.13
2018-12-16T16:21:17.941Z,20.67
2018-12-16T16:23:46.804Z,21.10
2018-12-16T16:26:16.319Z,22.17
2018-12-16T16:28:45.121Z,20.00
2018-12-16T16:31:13.796Z,19.67
2018-12-16T16:33:42.479Z,18.13
2018-12-16T16:36:11.147Z,19.23
2018-12-16T16:38:39.443Z,19.63
2018-12-16T16:41:08.125Z,19.80
2018-12-16T16:43:36.897Z,21.00
2018-12-16T16:46:05.711Z,20.77
2018-12-16T16:48:34.630Z,19.47
2018-12-16T16:51:03.432Z,18.10
2018-12-16T16:53:32.176Z,19.67
2018-12-16T16:56:01.551Z,20.80
2018-12-16T16:58:30.977Z,20.10
2018-12-16T17:00:59.334Z,18.77
2018-12-16T17:03:28.510Z,20.50
2018-12-16T17:05:57.380Z,19.63
2018-12-16T17:08:27.528Z,19.03
2018-12-16T17:10:57.695Z,19.90
2018-12-16T17:13:26.369Z,20.23
2018-12-16T17:15:55.072Z,21.23
2018-12-16T17:18:29.319Z,20.03
2018-12-16T17:20:57.995Z,19.37
2018-12-16T17:23:26.674Z,19.43
2018-12-16T17:25:55.388Z,18.80
2018-12-16T17:28:28.160Z,21.20
2018-12-16T17:30:57.165Z,21.93
2018-12-16T17:33:25.559Z,20.80
2018-12-16T17:35:54.278Z,20.37
2018-12-16T17:38:22.940Z,20.73
2018-12-16T17:40:51.638Z,21.13
2018-12-16T17:43:20.054Z,20.57
2018-12-16T17:45:48.750Z,20.70
2018-12-16T17:48:17.429Z,19.10
2018-12-16T17:50:46.113Z,20.50
2018-12-16T17:53:14.763Z,20.57
2018-12-16T17:55:43.093Z,19.80
2018-12-16T17:58:11.390Z,20.90
2018-12-16T18:00:40.104Z,21.47
2018-12-16T18:03:08.855Z,21.70
2018-12-16T18:05:37.455Z,21.57
2018-12-16T18:08:06.139Z,19.90
2018-12-16T18:10:34.947Z,20.97
2018-12-16T18:13:03.670Z,20.23
2018-12-16T18:15:32.447Z,20.73
2018-12-16T18:18:01.166Z,20.40
2018-12-16T18:20:29.485Z,19.47
2018-12-16T18:22:58.176Z,20.87
2018-12-16T18:25:26.867Z,20.60
2018-12-16T18:27:55.531Z,21.23
2018-12-16T18:30:24.187Z,21.73
2018-12-16T18:32:53.075Z,21.03
2018-12-16T18:35:21.710Z,22.23
2018-12-16T18:37:50.620Z,23.13
2018-12-16T18:40:19.355Z,22.73
2018-12-16T18:42:47.991Z,21.77
2018-12-16T18:45:16.671Z,22.30
2018-12-16T18:47:45.325Z,21.20
2018-12-16T18:50:13.996Z,21.57
2018-12-16T18:52:42.660Z,21.67
2018-12-16T18:55:11.354Z,20.57
2018-12-16T18:57:39.649Z,20.73
2018-12-16T19:00:11.383Z,21.10
2018-12-16T19:02:40.131Z,21.47
2018-12-16T19:05:08.863Z,22.27
2018-12-16T19:07:37.543Z,19.93
2018-12-16T19:10:07.289Z,21.07
2018-12-16T19:12:35.940Z,20.13
2018-12-16T19:15:05.987Z,21.03
2018-12-16T19:17:34.650Z,21.57
2018-12-16T19:20:02.931Z,22.50
2018-12-16T19:22:31.622Z,21.87
2018-12-16T19:25:00.258Z,24.03
2018-12-16T19:27:28.956Z,23.20
2018-12-16T19:29:57.257Z,23.37
2018-12-16T19:32:25.882Z,24.63
2018-12-16T19:34:54.563Z,23.33
2018-12-16T19:37:23.475Z,23.87
2018-12-16T19:39:52.136Z,22.67
2018-12-16T19:42:20.835Z,23.37
2018-12-16T19:44:49.539Z,23.97
2018-12-16T19:47:18.259Z,24.27
2018-12-16T19:49:46.561Z,25.70
2018-12-16T19:52:15.285Z,25.97
2018-12-16T19:54:44.369Z,23.77
2018-12-16T19:57:13.210Z,27.53
2018-12-16T19:59:41.509Z,25.70
2018-12-16T20:02:09.807Z,25.37
2018-12-16T20:04:43.774Z,27.93
2018-12-16T20:07:12.520Z,25.87
2018-12-16T20:09:41.199Z,22.77
2018-12-16T20:12:09.871Z,27.07
2018-12-16T20:14:38.601Z,25.50
2018-12-16T20:17:07.295Z,25.97
2018-12-16T20:19:35.931Z,25.90
2018-12-16T20:22:04.754Z,24.23
2018-12-16T20:24:33.637Z,26.27
2018-12-16T20:27:02.324Z,25.30
2018-12-16T20:29:30.929Z,27.33
2018-12-16T20:31:59.642Z,28.00
2018-12-16T20:34:28.287Z,26.00
2018-12-16T20:36:56.946Z,25.87
2018-12-16T20:39:25.760Z,26.00
2018-12-16T20:41:54.094Z,25.50
2018-12-16T20:44:22.784Z,26.10
2018-12-16T20:46:51.410Z,24.20
2018-12-16T20:49:19.773Z,24.60
2018-12-16T20:51:48.451Z,24.30
2018-12-16T20:54:17.133Z,26.40
2018-12-16T20:56:45.987Z,25.20
2018-12-16T20:59:14.631Z,25.27
2018-12-16T21:01:43.305Z,25.57
2018-12-16T21:04:11.998Z,24.80
2018-12-16T21:06:40.722Z,25.90
2018-12-16T21:09:09.519Z,25.13
2018-12-16T21:11:43.502Z,24.10
2018-12-16T21:14:17.149Z,24.13
2018-12-16T21:16:51.043Z,23.57
2018-12-16T21:19:20.327Z,23.30
2018-12-16T21:21:49.019Z,24.73
2018-12-16T21:24:17.755Z,24.07
2018-12-16T21:26:46.736Z,25.07
2018-12-16T21:29:15.403Z,23.53
2018-12-16T21:31:44.112Z,23.83
2018-12-16T21:34:12.413Z,26.17
2018-12-16T21:36:41.061Z,22.63
2018-12-16T21:39:09.717Z,26.73
2018-12-16T21:41:38.423Z,24.83
2018-12-16T21:44:07.109Z,23.33
2018-12-16T21:46:35.769Z,24.67
2018-12-16T21:49:04.439Z,24.07
2018-12-16T21:54:07.317Z,26.03
2018-12-16T21:56:35.971Z,24.70
2018-12-16T21:59:04.747Z,24.93
2018-12-16T22:01:33.401Z,23.27
2018-12-16T22:04:02.105Z,22.50
2018-12-16T22:06:30.810Z,24.40
2018-12-16T22:08:59.462Z,23.60
2018-12-16T22:11:28.166Z,23.53
2018-12-16T22:13:56.842Z,24.77
2018-12-16T22:16:25.529Z,24.43
2018-12-16T22:18:54.180Z,23.97
2018-12-16T22:21:23.050Z,23.93
2018-12-16T22:23:51.701Z,23.77
2018-12-16T22:26:20.359Z,22.83
2018-12-16T22:28:49.040Z,24.07
2018-12-16T22:31:17.336Z,24.43
2018-12-16T22:33:46.138Z,25.03
2018-12-16T22:36:14.795Z,24.30
2018-12-16T22:38:43.467Z,22.33
2018-12-16T22:41:12.202Z,23.03
2018-12-16T22:43:41.200Z,25.03
2018-12-16T22:46:10.811Z,23.97
2018-12-16T22:48:39.491Z,24.30
2018-12-16T22:51:08.155Z,26.23
2018-12-16T22:53:36.843Z,24.63
2018-12-16T22:56:05.644Z,26.73
2018-12-16T22:58:34.298Z,25.23
2018-12-16T23:01:08.394Z,28.53
2018-12-16T23:03:37.059Z,27.57
2018-12-16T23:06:05.728Z,27.97
2018-12-16T23:08:34.575Z,27.30
2018-12-16T23:11:03.165Z,26.27
2018-12-16T23:13:31.880Z,26.23
2018-12-16T23:16:00.561Z,30.07
2018-12-16T23:18:29.310Z,30.47
2018-12-16T23:20:57.997Z,30.20
2018-12-16T23:23:26.695Z,30.60
2018-12-16T23:25:55.380Z,30.00
2018-12-16T23:28:24.077Z,28.33
2018-12-16T23:30:52.786Z,28.10
2018-12-16T23:33:21.451Z,26.87
2018-12-16T23:35:50.372Z,26.67
2018-12-16T23:38:18.689Z,25.87
2018-12-16T23:40:47.353Z,25.33
2018-12-16T23:43:16.054Z,25.77
2018-12-16T23:45:44.715Z,29.13
2018-12-16T23:48:13.370Z,30.07
2018-12-16T23:50:41.686Z,27.60
2018-12-16T23:53:10.358Z,27.07
2018-12-16T23:55:39.022Z,28.33
2018-12-16T23:58:07.709Z,27.37
